sensor_id;sensor_type;location;lat;lon;timestamp;P1;durP1;ratioP1;P2;durP2;ratioP2
28577;SDS011;15769;52.248;15.818;2023-04-06T00:03:33;126.07;;;46.10;;
28577;SDS011;15769;52.248;15.818;2023-04-06T00:08:36;115.30;;;45.65;;
28577;SDS011;15769;52.248;15.818;2023-04-06T00:13:39;104.60;;;41.55;;
28577;SDS011;15769;52.248;15.818;2023-04-06T00:18:41;89.22;;;38.55;;
28577;SDS011;15769;52.248;15.818;2023-04-06T00:23:44;84.50;;;34.97;;
28577;SDS011;15769;52.248;15.818;2023-04-06T00:28:46;63.97;;;26.83;;
28577;SDS011;15769;52.248;15.818;2023-04-06T00:33:49;84.97;;;34.83;;
28577;SDS011;15769;52.248;15.818;2023-04-06T00:38:52;81.10;;;32.90;;
28577;SDS011;15769;52.248;15.818;2023-04-06T00:43:58;100.15;;;41.15;;
28577;SDS011;15769;52.248;15.818;2023-04-06T00:49:00;92.82;;;40.05;;
28577;SDS011;15769;52.248;15.818;2023-04-06T00:54:04;78.40;;;35.55;;
28577;SDS011;15769;52.248;15.818;2023-04-06T00:59:10;76.30;;;34.17;;
28577;SDS011;15769;52.248;15.818;2023-04-06T01:04:14;71.85;;;32.65;;
28577;SDS011;15769;52.248;15.818;2023-04-06T01:09:17;68.70;;;30.88;;
28577;SDS011;15769;52.248;15.818;2023-04-06T01:14:21;58.42;;;28.65;;
28577;SDS011;15769;52.248;15.818;2023-04-06T01:19:30;63.38;;;30.17;;
28577;SDS011;15769;52.248;15.818;2023-04-06T01:24:33;62.85;;;31.23;;
28577;SDS011;15769;52.248;15.818;2023-04-06T01:29:52;61.35;;;30.52;;
28577;SDS011;15769;52.248;15.818;2023-04-06T01:35:15;55.70;;;28.23;;
28577;SDS011;15769;52.248;15.818;2023-04-06T01:40:33;76.75;;;31.33;;
28577;SDS011;15769;52.248;15.818;2023-04-06T01:45:36;68.05;;;31.33;;
28577;SDS011;15769;52.248;15.818;2023-04-06T01:50:49;72.65;;;31.65;;
28577;SDS011;15769;52.248;15.818;2023-04-06T01:55:57;84.78;;;36.30;;
28577;SDS011;15769;52.248;15.818;2023-04-06T02:01:05;73.65;;;33.22;;
28577;SDS011;15769;52.248;15.818;2023-04-06T02:06:21;56.03;;;27.58;;
28577;SDS011;15769;52.248;15.818;2023-04-06T02:11:24;56.40;;;26.92;;
28577;SDS011;15769;52.248;15.818;2023-04-06T02:16:30;56.78;;;27.77;;
28577;SDS011;15769;52.248;15.818;2023-04-06T02:21:32;58.57;;;28.50;;
28577;SDS011;15769;52.248;15.818;2023-04-06T02:26:35;39.95;;;19.45;;
28577;SDS011;15769;52.248;15.818;2023-04-06T02:31:38;61.00;;;28.13;;
28577;SDS011;15769;52.248;15.818;2023-04-06T02:36:46;55.55;;;25.67;;
28577;SDS011;15769;52.248;15.818;2023-04-06T02:41:53;50.45;;;26.23;;
28577;SDS011;15769;52.248;15.818;2023-04-06T02:46:58;51.40;;;24.70;;
28577;SDS011;15769;52.248;15.818;2023-04-06T02:52:02;50.25;;;25.45;;
28577;SDS011;15769;52.248;15.818;2023-04-06T02:57:08;55.30;;;27.70;;
28577;SDS011;15769;52.248;15.818;2023-04-06T03:02:16;64.85;;;32.20;;
28577;SDS011;15769;52.248;15.818;2023-04-06T03:07:19;63.97;;;30.77;;
28577;SDS011;15769;52.248;15.818;2023-04-06T03:12:22;70.20;;;32.65;;
28577;SDS011;15769;52.248;15.818;2023-04-06T03:17:47;75.47;;;34.35;;
28577;SDS011;15769;52.248;15.818;2023-04-06T03:23:11;73.88;;;33.53;;
28577;SDS011;15769;52.248;15.818;2023-04-06T03:28:16;58.75;;;28.67;;
28577;SDS011;15769;52.248;15.818;2023-04-06T03:33:29;52.97;;;23.25;;
28577;SDS011;15769;52.248;15.818;2023-04-06T03:38:34;67.95;;;30.98;;
28577;SDS011;15769;52.248;15.818;2023-04-06T03:43:45;65.70;;;32.15;;
28577;SDS011;15769;52.248;15.818;2023-04-06T03:48:48;69.53;;;31.27;;
28577;SDS011;15769;52.248;15.818;2023-04-06T03:53:53;66.50;;;31.38;;
28577;SDS011;15769;52.248;15.818;2023-04-06T03:58:55;66.43;;;31.83;;
28577;SDS011;15769;52.248;15.818;2023-04-06T04:03:58;65.67;;;30.60;;
28577;SDS011;15769;52.248;15.818;2023-04-06T04:09:01;70.20;;;32.40;;
28577;SDS011;15769;52.248;15.818;2023-04-06T04:14:04;71.50;;;33.13;;
28577;SDS011;15769;52.248;15.818;2023-04-06T04:19:07;94.85;;;37.97;;
28577;SDS011;15769;52.248;15.818;2023-04-06T04:24:10;155.40;;;53.35;;
28577;SDS011;15769;52.248;15.818;2023-04-06T04:29:14;106.75;;;41.95;;
28577;SDS011;15769;52.248;15.818;2023-04-06T04:34:18;79.63;;;35.45;;
28577;SDS011;15769;52.248;15.818;2023-04-06T04:39:25;146.27;;;54.00;;
28577;SDS011;15769;52.248;15.818;2023-04-06T04:44:36;146.55;;;55.45;;
28577;SDS011;15769;52.248;15.818;2023-04-06T04:49:39;125.03;;;48.33;;
28577;SDS011;15769;52.248;15.818;2023-04-06T04:54:41;82.20;;;33.57;;
28577;SDS011;15769;52.248;15.818;2023-04-06T04:59:50;95.25;;;40.83;;
28577;SDS011;15769;52.248;15.818;2023-04-06T05:10:00;83.53;;;37.75;;
28577;SDS011;15769;52.248;15.818;2023-04-06T05:15:07;85.13;;;36.97;;
28577;SDS011;15769;52.248;15.818;2023-04-06T05:20:12;78.45;;;35.10;;
28577;SDS011;15769;52.248;15.818;2023-04-06T05:25:22;100.47;;;44.40;;
28577;SDS011;15769;52.248;15.818;2023-04-06T05:30:28;97.20;;;45.38;;
28577;SDS011;15769;52.248;15.818;2023-04-06T05:35:30;70.75;;;34.72;;
28577;SDS011;15769;52.248;15.818;2023-04-06T05:40:41;75.82;;;33.97;;
28577;SDS011;15769;52.248;15.818;2023-04-06T05:45:49;124.18;;;49.13;;
28577;SDS011;15769;52.248;15.818;2023-04-06T05:50:51;105.75;;;38.83;;
28577;SDS011;15769;52.248;15.818;2023-04-06T05:56:01;62.00;;;28.40;;
28577;SDS011;15769;52.248;15.818;2023-04-06T06:01:06;64.43;;;28.65;;
28577;SDS011;15769;52.248;15.818;2023-04-06T06:06:17;69.50;;;30.55;;
28577;SDS011;15769;52.248;15.818;2023-04-06T06:11:32;50.20;;;24.45;;
28577;SDS011;15769;52.248;15.818;2023-04-06T06:16:37;52.05;;;24.98;;
28577;SDS011;15769;52.248;15.818;2023-04-06T06:21:41;45.30;;;24.65;;
28577;SDS011;15769;52.248;15.818;2023-04-06T06:26:44;50.47;;;26.20;;
28577;SDS011;15769;52.248;15.818;2023-04-06T06:31:48;53.92;;;25.38;;
28577;SDS011;15769;52.248;15.818;2023-04-06T06:36:51;47.25;;;25.05;;
28577;SDS011;15769;52.248;15.818;2023-04-06T06:41:54;42.80;;;23.63;;
28577;SDS011;15769;52.248;15.818;2023-04-06T06:47:16;42.60;;;24.20;;
28577;SDS011;15769;52.248;15.818;2023-04-06T06:52:19;48.70;;;26.63;;
28577;SDS011;15769;52.248;15.818;2023-04-06T06:57:21;49.00;;;26.57;;
28577;SDS011;15769;52.248;15.818;2023-04-06T07:02:25;50.97;;;29.02;;
28577;SDS011;15769;52.248;15.818;2023-04-06T07:07:34;53.35;;;30.48;;
28577;SDS011;15769;52.248;15.818;2023-04-06T07:12:37;49.50;;;29.20;;
28577;SDS011;15769;52.248;15.818;2023-04-06T07:17:40;52.30;;;29.42;;
28577;SDS011;15769;52.248;15.818;2023-04-06T07:22:48;44.97;;;29.35;;
28577;SDS011;15769;52.248;15.818;2023-04-06T07:27:50;51.50;;;31.25;;
28577;SDS011;15769;52.248;15.818;2023-04-06T07:32:54;45.83;;;28.73;;
28577;SDS011;15769;52.248;15.818;2023-04-06T07:38:02;47.15;;;28.48;;
28577;SDS011;15769;52.248;15.818;2023-04-06T07:43:06;39.88;;;25.15;;
28577;SDS011;15769;52.248;15.818;2023-04-06T07:48:10;40.33;;;24.42;;
28577;SDS011;15769;52.248;15.818;2023-04-06T07:53:12;38.08;;;24.23;;
28577;SDS011;15769;52.248;15.818;2023-04-06T07:58:20;33.72;;;22.30;;
28577;SDS011;15769;52.248;15.818;2023-04-06T08:03:28;38.53;;;22.92;;
28577;SDS011;15769;52.248;15.818;2023-04-06T08:08:31;26.58;;;18.20;;
28577;SDS011;15769;52.248;15.818;2023-04-06T08:13:35;29.20;;;18.67;;
28577;SDS011;15769;52.248;15.818;2023-04-06T08:18:37;29.63;;;18.52;;
28577;SDS011;15769;52.248;15.818;2023-04-06T08:23:59;29.38;;;18.13;;
28577;SDS011;15769;52.248;15.818;2023-04-06T08:29:03;29.33;;;17.88;;
28577;SDS011;15769;52.248;15.818;2023-04-06T08:34:07;26.40;;;15.60;;
28577;SDS011;15769;52.248;15.818;2023-04-06T08:39:14;23.05;;;14.95;;
28577;SDS011;15769;52.248;15.818;2023-04-06T08:44:17;21.48;;;14.25;;
28577;SDS011;15769;52.248;15.818;2023-04-06T08:49:20;17.38;;;11.52;;
28577;SDS011;15769;52.248;15.818;2023-04-06T08:54:30;12.10;;;6.75;;
28577;SDS011;15769;52.248;15.818;2023-04-06T08:59:53;11.35;;;7.43;;
28577;SDS011;15769;52.248;15.818;2023-04-06T09:04:58;12.10;;;7.68;;
28577;SDS011;15769;52.248;15.818;2023-04-06T09:10:06;7.65;;;5.53;;
28577;SDS011;15769;52.248;15.818;2023-04-06T09:15:18;11.65;;;6.22;;
28577;SDS011;15769;52.248;15.818;2023-04-06T09:20:26;14.63;;;8.90;;
28577;SDS011;15769;52.248;15.818;2023-04-06T09:25:31;7.80;;;5.43;;
28577;SDS011;15769;52.248;15.818;2023-04-06T09:30:34;12.02;;;7.60;;
28577;SDS011;15769;52.248;15.818;2023-04-06T09:35:38;14.73;;;8.43;;
28577;SDS011;15769;52.248;15.818;2023-04-06T09:40:50;8.37;;;5.60;;
28577;SDS011;15769;52.248;15.818;2023-04-06T09:46:02;14.20;;;7.70;;
28577;SDS011;15769;52.248;15.818;2023-04-06T09:51:06;8.77;;;5.63;;
28577;SDS011;15769;52.248;15.818;2023-04-06T09:56:10;5.95;;;4.07;;
28577;SDS011;15769;52.248;15.818;2023-04-06T10:01:17;5.35;;;4.20;;
28577;SDS011;15769;52.248;15.818;2023-04-06T10:06:22;8.73;;;5.85;;
28577;SDS011;15769;52.248;15.818;2023-04-06T10:11:28;8.80;;;5.85;;
28577;SDS011;15769;52.248;15.818;2023-04-06T10:16:35;12.00;;;7.32;;
28577;SDS011;15769;52.248;15.818;2023-04-06T10:21:38;8.88;;;5.95;;
28577;SDS011;15769;52.248;15.818;2023-04-06T10:26:41;10.30;;;5.80;;
28577;SDS011;15769;52.248;15.818;2023-04-06T10:31:44;13.35;;;8.05;;
28577;SDS011;15769;52.248;15.818;2023-04-06T10:36:46;12.55;;;7.72;;
28577;SDS011;15769;52.248;15.818;2023-04-06T10:41:49;17.50;;;11.05;;
28577;SDS011;15769;52.248;15.818;2023-04-06T10:46:53;14.07;;;9.05;;
28577;SDS011;15769;52.248;15.818;2023-04-06T10:51:59;13.27;;;8.20;;
28577;SDS011;15769;52.248;15.818;2023-04-06T10:57:01;16.38;;;8.88;;
28577;SDS011;15769;52.248;15.818;2023-04-06T11:02:04;23.45;;;12.27;;
28577;SDS011;15769;52.248;15.818;2023-04-06T11:07:08;13.80;;;8.20;;
28577;SDS011;15769;52.248;15.818;2023-04-06T11:12:20;16.55;;;10.20;;
28577;SDS011;15769;52.248;15.818;2023-04-06T11:17:28;12.43;;;8.18;;
28577;SDS011;15769;52.248;15.818;2023-04-06T11:23:12;30.00;;;11.75;;
28577;SDS011;15769;52.248;15.818;2023-04-06T11:33:28;13.80;;;8.60;;
28577;SDS011;15769;52.248;15.818;2023-04-06T11:38:33;13.48;;;7.20;;
28577;SDS011;15769;52.248;15.818;2023-04-06T11:43:36;9.90;;;6.30;;
28577;SDS011;15769;52.248;15.818;2023-04-06T11:48:43;10.68;;;6.78;;
28577;SDS011;15769;52.248;15.818;2023-04-06T11:53:47;12.13;;;7.22;;
28577;SDS011;15769;52.248;15.818;2023-04-06T11:58:50;49.20;;;19.93;;
28577;SDS011;15769;52.248;15.818;2023-04-06T12:03:53;27.17;;;13.68;;
28577;SDS011;15769;52.248;15.818;2023-04-06T12:14:05;30.23;;;17.05;;
28577;SDS011;15769;52.248;15.818;2023-04-06T12:19:52;13.65;;;8.05;;
28577;SDS011;15769;52.248;15.818;2023-04-06T12:24:55;17.75;;;10.90;;
28577;SDS011;15769;52.248;15.818;2023-04-06T12:30:02;15.02;;;8.48;;
28577;SDS011;15769;52.248;15.818;2023-04-06T12:35:04;22.17;;;12.77;;
28577;SDS011;15769;52.248;15.818;2023-04-06T12:40:10;13.88;;;8.88;;
28577;SDS011;15769;52.248;15.818;2023-04-06T12:45:14;10.50;;;8.60;;
28577;SDS011;15769;52.248;15.818;2023-04-06T12:55:20;12.60;;;7.35;;
28577;SDS011;15769;52.248;15.818;2023-04-06T13:00:23;13.68;;;8.55;;
28577;SDS011;15769;52.248;15.818;2023-04-06T13:15:36;18.20;;;9.80;;
28577;SDS011;15769;52.248;15.818;2023-04-06T13:20:39;30.80;;;16.55;;
28577;SDS011;15769;52.248;15.818;2023-04-06T13:25:41;34.95;;;19.90;;
28577;SDS011;15769;52.248;15.818;2023-04-06T13:30:47;13.13;;;7.70;;
28577;SDS011;15769;52.248;15.818;2023-04-06T13:36:09;15.30;;;11.35;;
28577;SDS011;15769;52.248;15.818;2023-04-06T13:41:21;16.48;;;8.40;;
28577;SDS011;15769;52.248;15.818;2023-04-06T13:47:15;10.80;;;7.28;;
28577;SDS011;15769;52.248;15.818;2023-04-06T13:52:19;19.10;;;9.90;;
28577;SDS011;15769;52.248;15.818;2023-04-06T13:57:22;17.10;;;10.20;;
28577;SDS011;15769;52.248;15.818;2023-04-06T14:02:25;16.23;;;7.73;;
28577;SDS011;15769;52.248;15.818;2023-04-06T14:07:30;18.52;;;11.93;;
28577;SDS011;15769;52.248;15.818;2023-04-06T14:12:34;16.08;;;10.10;;
28577;SDS011;15769;52.248;15.818;2023-04-06T14:17:36;16.90;;;10.27;;
28577;SDS011;15769;52.248;15.818;2023-04-06T14:22:40;13.80;;;8.47;;
28577;SDS011;15769;52.248;15.818;2023-04-06T14:27:43;14.40;;;8.20;;
28577;SDS011;15769;52.248;15.818;2023-04-06T14:32:50;16.40;;;9.20;;
28577;SDS011;15769;52.248;15.818;2023-04-06T14:37:52;11.57;;;6.55;;
28577;SDS011;15769;52.248;15.818;2023-04-06T14:42:55;17.20;;;7.87;;
28577;SDS011;15769;52.248;15.818;2023-04-06T14:47:58;20.80;;;10.25;;
28577;SDS011;15769;52.248;15.818;2023-04-06T14:53:01;11.10;;;6.65;;
28577;SDS011;15769;52.248;15.818;2023-04-06T14:58:03;12.57;;;6.80;;
28577;SDS011;15769;52.248;15.818;2023-04-06T15:03:06;12.68;;;7.95;;
28577;SDS011;15769;52.248;15.818;2023-04-06T15:08:08;28.03;;;14.20;;
28577;SDS011;15769;52.248;15.818;2023-04-06T15:13:14;23.55;;;11.15;;
28577;SDS011;15769;52.248;15.818;2023-04-06T15:18:20;15.13;;;8.82;;
28577;SDS011;15769;52.248;15.818;2023-04-06T15:23:22;12.98;;;6.90;;
28577;SDS011;15769;52.248;15.818;2023-04-06T15:28:25;24.53;;;12.47;;
28577;SDS011;15769;52.248;15.818;2023-04-06T15:33:28;20.95;;;12.50;;
28577;SDS011;15769;52.248;15.818;2023-04-06T15:38:34;12.80;;;7.78;;
28577;SDS011;15769;52.248;15.818;2023-04-06T15:43:43;33.88;;;18.45;;
28577;SDS011;15769;52.248;15.818;2023-04-06T15:48:46;36.28;;;17.98;;
28577;SDS011;15769;52.248;15.818;2023-04-06T15:53:49;42.00;;;22.02;;
28577;SDS011;15769;52.248;15.818;2023-04-06T15:58:52;22.90;;;11.47;;
28577;SDS011;15769;52.248;15.818;2023-04-06T16:03:54;18.33;;;9.87;;
28577;SDS011;15769;52.248;15.818;2023-04-06T16:08:57;19.88;;;10.73;;
28577;SDS011;15769;52.248;15.818;2023-04-06T16:14:01;16.98;;;10.00;;
28577;SDS011;15769;52.248;15.818;2023-04-06T16:19:03;17.83;;;10.75;;
28577;SDS011;15769;52.248;15.818;2023-04-06T16:24:06;14.73;;;9.88;;
28577;SDS011;15769;52.248;15.818;2023-04-06T16:34:13;16.20;;;10.30;;
28577;SDS011;15769;52.248;15.818;2023-04-06T16:39:16;15.00;;;9.60;;
28577;SDS011;15769;52.248;15.818;2023-04-06T16:44:19;15.90;;;7.90;;
28577;SDS011;15769;52.248;15.818;2023-04-06T16:49:22;15.87;;;9.57;;
28577;SDS011;15769;52.248;15.818;2023-04-06T16:54:25;19.63;;;10.38;;
28577;SDS011;15769;52.248;15.818;2023-04-06T16:59:32;33.15;;;17.85;;
28577;SDS011;15769;52.248;15.818;2023-04-06T17:04:39;59.95;;;27.35;;
28577;SDS011;15769;52.248;15.818;2023-04-06T17:09:42;57.47;;;24.40;;
28577;SDS011;15769;52.248;15.818;2023-04-06T17:14:45;53.40;;;23.07;;
28577;SDS011;15769;52.248;15.818;2023-04-06T17:19:48;47.53;;;23.80;;
28577;SDS011;15769;52.248;15.818;2023-04-06T17:24:51;75.40;;;28.50;;
28577;SDS011;15769;52.248;15.818;2023-04-06T17:29:54;111.47;;;41.93;;
28577;SDS011;15769;52.248;15.818;2023-04-06T17:34:56;112.90;;;47.22;;
28577;SDS011;15769;52.248;15.818;2023-04-06T17:45:03;83.60;;;33.38;;
28577;SDS011;15769;52.248;15.818;2023-04-06T17:50:08;79.67;;;32.73;;
28577;SDS011;15769;52.248;15.818;2023-04-06T17:55:10;83.38;;;37.72;;
28577;SDS011;15769;52.248;15.818;2023-04-06T18:00:17;66.05;;;33.47;;
28577;SDS011;15769;52.248;15.818;2023-04-06T18:05:29;82.18;;;43.58;;
28577;SDS011;15769;52.248;15.818;2023-04-06T18:10:35;114.68;;;57.58;;
28577;SDS011;15769;52.248;15.818;2023-04-06T18:15:40;95.90;;;48.58;;
28577;SDS011;15769;52.248;15.818;2023-04-06T18:20:43;92.95;;;43.67;;
28577;SDS011;15769;52.248;15.818;2023-04-06T18:25:48;80.10;;;38.03;;
28577;SDS011;15769;52.248;15.818;2023-04-06T18:30:53;92.20;;;42.28;;
28577;SDS011;15769;52.248;15.818;2023-04-06T18:41:00;326.38;;;143.93;;
28577;SDS011;15769;52.248;15.818;2023-04-06T18:46:10;268.52;;;117.28;;
28577;SDS011;15769;52.248;15.818;2023-04-06T18:51:14;183.30;;;78.53;;
28577;SDS011;15769;52.248;15.818;2023-04-06T18:56:19;160.60;;;70.88;;
28577;SDS011;15769;52.248;15.818;2023-04-06T19:06:26;179.17;;;67.60;;
28577;SDS011;15769;52.248;15.818;2023-04-06T19:11:29;102.73;;;42.20;;
28577;SDS011;15769;52.248;15.818;2023-04-06T19:16:35;48.33;;;22.83;;
28577;SDS011;15769;52.248;15.818;2023-04-06T19:21:42;34.63;;;18.35;;
28577;SDS011;15769;52.248;15.818;2023-04-06T19:26:45;33.10;;;18.83;;
28577;SDS011;15769;52.248;15.818;2023-04-06T19:31:51;37.67;;;19.15;;
28577;SDS011;15769;52.248;15.818;2023-04-06T19:36:55;64.57;;;28.20;;
28577;SDS011;15769;52.248;15.818;2023-04-06T19:41:59;54.55;;;27.85;;
28577;SDS011;15769;52.248;15.818;2023-04-06T19:47:02;73.72;;;36.85;;
28577;SDS011;15769;52.248;15.818;2023-04-06T19:52:05;89.83;;;41.10;;
28577;SDS011;15769;52.248;15.818;2023-04-06T19:57:09;103.65;;;48.33;;
28577;SDS011;15769;52.248;15.818;2023-04-06T20:02:12;131.00;;;58.85;;
28577;SDS011;15769;52.248;15.818;2023-04-06T20:07:15;142.48;;;63.80;;
28577;SDS011;15769;52.248;15.818;2023-04-06T20:12:18;148.88;;;63.45;;
28577;SDS011;15769;52.248;15.818;2023-04-06T20:17:21;122.63;;;54.88;;
28577;SDS011;15769;52.248;15.818;2023-04-06T20:22:27;122.85;;;52.05;;
28577;SDS011;15769;52.248;15.818;2023-04-06T20:27:29;114.85;;;47.33;;
28577;SDS011;15769;52.248;15.818;2023-04-06T20:32:34;122.35;;;50.78;;
28577;SDS011;15769;52.248;15.818;2023-04-06T20:37:36;165.38;;;55.40;;
28577;SDS011;15769;52.248;15.818;2023-04-06T20:42:40;118.65;;;44.70;;
28577;SDS011;15769;52.248;15.818;2023-04-06T20:47:45;104.45;;;41.17;;
28577;SDS011;15769;52.248;15.818;2023-04-06T20:52:47;105.30;;;41.80;;
28577;SDS011;15769;52.248;15.818;2023-04-06T20:57:50;136.80;;;42.65;;
28577;SDS011;15769;52.248;15.818;2023-04-06T21:02:53;102.63;;;36.58;;
28577;SDS011;15769;52.248;15.818;2023-04-06T21:07:56;68.38;;;30.83;;
28577;SDS011;15769;52.248;15.818;2023-04-06T21:12:59;51.30;;;28.53;;
28577;SDS011;15769;52.248;15.818;2023-04-06T21:18:02;78.70;;;36.33;;
28577;SDS011;15769;52.248;15.818;2023-04-06T21:23:07;51.85;;;24.48;;
28577;SDS011;15769;52.248;15.818;2023-04-06T21:28:10;37.90;;;20.52;;
28577;SDS011;15769;52.248;15.818;2023-04-06T21:33:12;45.83;;;22.15;;
28577;SDS011;15769;52.248;15.818;2023-04-06T21:38:15;52.97;;;26.08;;
28577;SDS011;15769;52.248;15.818;2023-04-06T21:43:17;68.57;;;31.50;;
28577;SDS011;15769;52.248;15.818;2023-04-06T21:48:20;63.95;;;28.80;;
28577;SDS011;15769;52.248;15.818;2023-04-06T21:53:22;54.90;;;27.50;;
28577;SDS011;15769;52.248;15.818;2023-04-06T21:58:25;48.72;;;23.63;;
28577;SDS011;15769;52.248;15.818;2023-04-06T22:03:27;48.97;;;23.38;;
28577;SDS011;15769;52.248;15.818;2023-04-06T22:08:30;44.90;;;21.67;;
28577;SDS011;15769;52.248;15.818;2023-04-06T22:13:35;54.45;;;28.20;;
28577;SDS011;15769;52.248;15.818;2023-04-06T22:18:40;73.05;;;31.10;;
28577;SDS011;15769;52.248;15.818;2023-04-06T22:23:43;78.45;;;35.65;;
28577;SDS011;15769;52.248;15.818;2023-04-06T22:28:46;56.38;;;27.95;;
28577;SDS011;15769;52.248;15.818;2023-04-06T22:33:48;52.75;;;25.90;;
28577;SDS011;15769;52.248;15.818;2023-04-06T22:38:51;45.38;;;23.10;;
28577;SDS011;15769;52.248;15.818;2023-04-06T22:43:54;53.63;;;25.08;;
28577;SDS011;15769;52.248;15.818;2023-04-06T22:48:57;62.22;;;31.13;;
28577;SDS011;15769;52.248;15.818;2023-04-06T22:54:01;52.25;;;26.13;;
28577;SDS011;15769;52.248;15.818;2023-04-06T22:59:03;184.73;;;68.28;;
28577;SDS011;15769;52.248;15.818;2023-04-06T23:04:06;155.95;;;60.75;;
28577;SDS011;15769;52.248;15.818;2023-04-06T23:09:10;128.10;;;52.15;;
28577;SDS011;15769;52.248;15.818;2023-04-06T23:14:12;88.70;;;39.25;;
28577;SDS011;15769;52.248;15.818;2023-04-06T23:19:15;52.40;;;25.33;;
28577;SDS011;15769;52.248;15.818;2023-04-06T23:24:18;39.38;;;20.75;;
28577;SDS011;15769;52.248;15.818;2023-04-06T23:29:20;44.42;;;21.38;;
28577;SDS011;15769;52.248;15.818;2023-04-06T23:34:23;42.75;;;23.30;;
28577;SDS011;15769;52.248;15.818;2023-04-06T23:39:26;63.05;;;32.38;;
28577;SDS011;15769;52.248;15.818;2023-04-06T23:44:29;59.45;;;28.10;;
28577;SDS011;15769;52.248;15.818;2023-04-06T23:49:32;58.00;;;27.60;;
28577;SDS011;15769;52.248;15.818;2023-04-06T23:54:35;53.70;;;25.45;;
28577;SDS011;15769;52.248;15.818;2023-04-06T23:59:39;48.42;;;24.35;;
